sensor_id;sensor_type;location;lat;lon;timestamp;P1;durP1;ratioP1;P2;durP2;ratioP2
17763;SDS011;22245;52.832;13.816;2023-08-24T00:00:40;5.35;;;3.60;;
17763;SDS011;22245;52.832;13.816;2023-08-24T00:04:02;4.43;;;3.60;;
17763;SDS011;22245;52.832;13.816;2023-08-24T00:07:24;5.35;;;3.67;;
17763;SDS011;22245;52.832;13.816;2023-08-24T00:10:48;4.78;;;3.75;;
17763;SDS011;22245;52.832;13.816;2023-08-24T00:14:09;7.47;;;3.80;;
17763;SDS011;22245;52.832;13.816;2023-08-24T00:17:31;4.90;;;3.50;;
17763;SDS011;22245;52.832;13.816;2023-08-24T00:20:52;5.00;;;3.40;;
17763;SDS011;22245;52.832;13.816;2023-08-24T00:24:14;5.25;;;3.60;;
17763;SDS011;22245;52.832;13.816;2023-08-24T00:27:37;5.35;;;3.53;;
17763;SDS011;22245;52.832;13.816;2023-08-24T00:30:59;3.97;;;3.50;;
17763;SDS011;22245;52.832;13.816;2023-08-24T00:34:21;5.88;;;3.70;;
17763;SDS011;22245;52.832;13.816;2023-08-24T00:37:42;6.30;;;3.70;;
17763;SDS011;22245;52.832;13.816;2023-08-24T00:41:04;4.07;;;3.50;;
17763;SDS011;22245;52.832;13.816;2023-08-24T00:44:27;6.30;;;3.67;;
17763;SDS011;22245;52.832;13.816;2023-08-24T00:47:50;4.93;;;3.92;;
17763;SDS011;22245;52.832;13.816;2023-08-24T00:51:13;5.65;;;3.92;;
17763;SDS011;22245;52.832;13.816;2023-08-24T00:54:35;4.47;;;3.55;;
17763;SDS011;22245;52.832;13.816;2023-08-24T00:58:00;5.78;;;3.90;;
17763;SDS011;22245;52.832;13.816;2023-08-24T01:01:26;4.45;;;3.45;;
17763;SDS011;22245;52.832;13.816;2023-08-24T01:04:47;4.22;;;3.70;;
17763;SDS011;22245;52.832;13.816;2023-08-24T01:08:09;4.85;;;3.83;;
17763;SDS011;22245;52.832;13.816;2023-08-24T01:11:33;6.15;;;3.53;;
17763;SDS011;22245;52.832;13.816;2023-08-24T01:15:07;4.93;;;3.53;;
17763;SDS011;22245;52.832;13.816;2023-08-24T01:18:35;5.55;;;3.78;;
17763;SDS011;22245;52.832;13.816;2023-08-24T01:21:58;4.70;;;3.70;;
17763;SDS011;22245;52.832;13.816;2023-08-24T01:25:24;5.22;;;3.65;;
17763;SDS011;22245;52.832;13.816;2023-08-24T01:28:58;6.28;;;3.72;;
17763;SDS011;22245;52.832;13.816;2023-08-24T01:32:20;6.25;;;3.55;;
17763;SDS011;22245;52.832;13.816;2023-08-24T01:35:42;6.03;;;3.75;;
17763;SDS011;22245;52.832;13.816;2023-08-24T01:39:05;5.88;;;3.80;;
17763;SDS011;22245;52.832;13.816;2023-08-24T01:42:31;5.57;;;3.80;;
17763;SDS011;22245;52.832;13.816;2023-08-24T01:45:59;4.57;;;3.90;;
17763;SDS011;22245;52.832;13.816;2023-08-24T01:49:22;3.92;;;3.25;;
17763;SDS011;22245;52.832;13.816;2023-08-24T01:52:46;5.97;;;3.63;;
17763;SDS011;22245;52.832;13.816;2023-08-24T01:56:08;7.13;;;3.97;;
17763;SDS011;22245;52.832;13.816;2023-08-24T01:59:31;4.85;;;4.00;;
17763;SDS011;22245;52.832;13.816;2023-08-24T02:02:54;7.10;;;4.13;;
17763;SDS011;22245;52.832;13.816;2023-08-24T02:06:16;6.55;;;4.10;;
17763;SDS011;22245;52.832;13.816;2023-08-24T02:09:38;5.55;;;3.60;;
17763;SDS011;22245;52.832;13.816;2023-08-24T02:13:00;5.97;;;3.63;;
17763;SDS011;22245;52.832;13.816;2023-08-24T02:16:21;3.97;;;3.58;;
17763;SDS011;22245;52.832;13.816;2023-08-24T02:19:45;5.22;;;3.63;;
17763;SDS011;22245;52.832;13.816;2023-08-24T02:23:07;4.80;;;3.60;;
17763;SDS011;22245;52.832;13.816;2023-08-24T02:26:29;7.85;;;4.55;;
17763;SDS011;22245;52.832;13.816;2023-08-24T02:29:52;5.40;;;4.45;;
17763;SDS011;22245;52.832;13.816;2023-08-24T02:33:14;7.05;;;5.32;;
17763;SDS011;22245;52.832;13.816;2023-08-24T02:36:38;6.65;;;4.50;;
17763;SDS011;22245;52.832;13.816;2023-08-24T02:39:59;7.22;;;4.53;;
17763;SDS011;22245;52.832;13.816;2023-08-24T02:43:21;6.10;;;5.50;;
17763;SDS011;22245;52.832;13.816;2023-08-24T02:46:44;7.15;;;5.30;;
17763;SDS011;22245;52.832;13.816;2023-08-24T02:50:06;6.15;;;5.28;;
17763;SDS011;22245;52.832;13.816;2023-08-24T02:53:30;7.93;;;5.32;;
17763;SDS011;22245;52.832;13.816;2023-08-24T02:56:53;6.03;;;4.65;;
17763;SDS011;22245;52.832;13.816;2023-08-24T03:00:15;6.25;;;5.22;;
17763;SDS011;22245;52.832;13.816;2023-08-24T03:03:37;5.65;;;4.50;;
17763;SDS011;22245;52.832;13.816;2023-08-24T03:06:58;5.20;;;4.05;;
17763;SDS011;22245;52.832;13.816;2023-08-24T03:10:21;5.10;;;3.95;;
17763;SDS011;22245;52.832;13.816;2023-08-24T03:13:43;5.28;;;3.92;;
17763;SDS011;22245;52.832;13.816;2023-08-24T03:17:05;5.32;;;3.80;;
17763;SDS011;22245;52.832;13.816;2023-08-24T03:20:27;4.53;;;4.13;;
17763;SDS011;22245;52.832;13.816;2023-08-24T03:23:49;6.07;;;4.22;;
17763;SDS011;22245;52.832;13.816;2023-08-24T03:27:13;5.50;;;3.90;;
17763;SDS011;22245;52.832;13.816;2023-08-24T03:30:35;5.18;;;4.18;;
17763;SDS011;22245;52.832;13.816;2023-08-24T03:33:58;6.18;;;3.85;;
17763;SDS011;22245;52.832;13.816;2023-08-24T03:37:20;7.25;;;4.10;;
17763;SDS011;22245;52.832;13.816;2023-08-24T03:40:41;5.53;;;3.90;;
17763;SDS011;22245;52.832;13.816;2023-08-24T03:44:04;4.60;;;3.78;;
17763;SDS011;22245;52.832;13.816;2023-08-24T03:47:26;4.15;;;3.70;;
17763;SDS011;22245;52.832;13.816;2023-08-24T03:50:48;8.82;;;4.50;;
17763;SDS011;22245;52.832;13.816;2023-08-24T03:54:09;6.65;;;5.32;;
17763;SDS011;22245;52.832;13.816;2023-08-24T03:57:31;6.72;;;5.32;;
17763;SDS011;22245;52.832;13.816;2023-08-24T04:00:56;5.72;;;5.10;;
17763;SDS011;22245;52.832;13.816;2023-08-24T04:04:18;6.22;;;4.88;;
17763;SDS011;22245;52.832;13.816;2023-08-24T04:07:40;6.22;;;5.20;;
17763;SDS011;22245;52.832;13.816;2023-08-24T04:11:02;6.18;;;4.88;;
17763;SDS011;22245;52.832;13.816;2023-08-24T04:14:24;8.45;;;5.20;;
17763;SDS011;22245;52.832;13.816;2023-08-24T04:17:46;8.02;;;5.43;;
17763;SDS011;22245;52.832;13.816;2023-08-24T04:21:09;7.40;;;5.43;;
17763;SDS011;22245;52.832;13.816;2023-08-24T04:24:31;6.57;;;4.30;;
17763;SDS011;22245;52.832;13.816;2023-08-24T04:27:53;7.75;;;4.72;;
17763;SDS011;22245;52.832;13.816;2023-08-24T04:31:15;6.88;;;4.35;;
17763;SDS011;22245;52.832;13.816;2023-08-24T04:34:38;6.25;;;4.40;;
17763;SDS011;22245;52.832;13.816;2023-08-24T04:37:59;7.85;;;4.22;;
17763;SDS011;22245;52.832;13.816;2023-08-24T04:41:21;5.85;;;4.47;;
17763;SDS011;22245;52.832;13.816;2023-08-24T04:44:42;6.20;;;4.53;;
17763;SDS011;22245;52.832;13.816;2023-08-24T04:48:04;6.13;;;3.97;;
17763;SDS011;22245;52.832;13.816;2023-08-24T04:51:28;6.45;;;4.68;;
17763;SDS011;22245;52.832;13.816;2023-08-24T04:54:49;6.97;;;4.45;;
17763;SDS011;22245;52.832;13.816;2023-08-24T04:58:12;5.80;;;4.50;;
17763;SDS011;22245;52.832;13.816;2023-08-24T05:01:34;4.68;;;4.05;;
17763;SDS011;22245;52.832;13.816;2023-08-24T05:04:56;5.68;;;4.13;;
17763;SDS011;22245;52.832;13.816;2023-08-24T05:08:19;6.57;;;4.38;;
17763;SDS011;22245;52.832;13.816;2023-08-24T05:11:41;8.23;;;4.22;;
17763;SDS011;22245;52.832;13.816;2023-08-24T05:15:02;5.85;;;4.18;;
17763;SDS011;22245;52.832;13.816;2023-08-24T05:18:24;4.82;;;3.83;;
17763;SDS011;22245;52.832;13.816;2023-08-24T05:21:45;5.63;;;4.03;;
17763;SDS011;22245;52.832;13.816;2023-08-24T05:25:09;7.03;;;4.22;;
17763;SDS011;22245;52.832;13.816;2023-08-24T05:28:31;5.05;;;4.00;;
17763;SDS011;22245;52.832;13.816;2023-08-24T05:31:53;4.82;;;4.18;;
17763;SDS011;22245;52.832;13.816;2023-08-24T05:35:14;5.63;;;4.15;;
17763;SDS011;22245;52.832;13.816;2023-08-24T05:38:36;6.88;;;4.30;;
17763;SDS011;22245;52.832;13.816;2023-08-24T05:42:08;8.43;;;4.57;;
17763;SDS011;22245;52.832;13.816;2023-08-24T05:45:31;10.10;;;4.75;;
17763;SDS011;22245;52.832;13.816;2023-08-24T05:48:52;8.82;;;4.68;;
17763;SDS011;22245;52.832;13.816;2023-08-24T05:52:14;9.45;;;5.25;;
17763;SDS011;22245;52.832;13.816;2023-08-24T05:55:36;8.55;;;4.90;;
17763;SDS011;22245;52.832;13.816;2023-08-24T05:58:59;6.70;;;4.90;;
17763;SDS011;22245;52.832;13.816;2023-08-24T06:02:25;5.57;;;5.00;;
17763;SDS011;22245;52.832;13.816;2023-08-24T06:05:47;7.85;;;4.90;;
17763;SDS011;22245;52.832;13.816;2023-08-24T06:09:09;12.32;;;5.35;;
17763;SDS011;22245;52.832;13.816;2023-08-24T06:12:31;7.18;;;4.78;;
17763;SDS011;22245;52.832;13.816;2023-08-24T06:15:54;6.22;;;4.95;;
17763;SDS011;22245;52.832;13.816;2023-08-24T06:19:15;6.93;;;5.18;;
17763;SDS011;22245;52.832;13.816;2023-08-24T06:22:37;9.38;;;4.55;;
17763;SDS011;22245;52.832;13.816;2023-08-24T06:25:58;11.73;;;5.70;;
17763;SDS011;22245;52.832;13.816;2023-08-24T06:29:21;9.50;;;4.60;;
17763;SDS011;22245;52.832;13.816;2023-08-24T06:32:44;7.38;;;4.50;;
17763;SDS011;22245;52.832;13.816;2023-08-24T06:36:06;14.98;;;4.45;;
17763;SDS011;22245;52.832;13.816;2023-08-24T06:39:28;5.50;;;4.20;;
17763;SDS011;22245;52.832;13.816;2023-08-24T06:42:49;7.65;;;4.63;;
17763;SDS011;22245;52.832;13.816;2023-08-24T06:46:12;10.05;;;5.35;;
17763;SDS011;22245;52.832;13.816;2023-08-24T06:49:36;6.75;;;4.20;;
17763;SDS011;22245;52.832;13.816;2023-08-24T07:00:27;8.15;;;3.63;;
17763;SDS011;22245;52.832;13.816;2023-08-24T07:03:49;4.95;;;3.50;;
17763;SDS011;22245;52.832;13.816;2023-08-24T07:07:12;6.93;;;3.75;;
17763;SDS011;22245;52.832;13.816;2023-08-24T07:10:33;7.18;;;4.38;;
17763;SDS011;22245;52.832;13.816;2023-08-24T07:13:55;5.45;;;3.38;;
17763;SDS011;22245;52.832;13.816;2023-08-24T07:17:17;9.35;;;3.70;;
17763;SDS011;22245;52.832;13.816;2023-08-24T07:20:39;4.28;;;3.22;;
17763;SDS011;22245;52.832;13.816;2023-08-24T07:24:02;6.72;;;3.08;;
17763;SDS011;22245;52.832;13.816;2023-08-24T07:27:25;6.90;;;3.55;;
17763;SDS011;22245;52.832;13.816;2023-08-24T07:30:48;5.25;;;3.13;;
17763;SDS011;22245;52.832;13.816;2023-08-24T07:34:10;6.90;;;3.28;;
17763;SDS011;22245;52.832;13.816;2023-08-24T07:37:32;5.72;;;3.38;;
17763;SDS011;22245;52.832;13.816;2023-08-24T07:40:55;4.93;;;3.10;;
17763;SDS011;22245;52.832;13.816;2023-08-24T07:44:17;4.60;;;3.05;;
17763;SDS011;22245;52.832;13.816;2023-08-24T07:47:38;4.63;;;2.90;;
17763;SDS011;22245;52.832;13.816;2023-08-24T07:51:00;3.47;;;2.78;;
17763;SDS011;22245;52.832;13.816;2023-08-24T07:54:22;4.72;;;2.92;;
17763;SDS011;22245;52.832;13.816;2023-08-24T07:57:46;7.15;;;3.10;;
17763;SDS011;22245;52.832;13.816;2023-08-24T08:01:09;3.90;;;2.70;;
17763;SDS011;22245;52.832;13.816;2023-08-24T08:04:32;4.72;;;3.15;;
17763;SDS011;22245;52.832;13.816;2023-08-24T08:07:54;5.32;;;3.10;;
17763;SDS011;22245;52.832;13.816;2023-08-24T08:11:15;11.20;;;3.58;;
17763;SDS011;22245;52.832;13.816;2023-08-24T08:14:38;11.43;;;3.22;;
17763;SDS011;22245;52.832;13.816;2023-08-24T08:17:59;6.28;;;3.25;;
17763;SDS011;22245;52.832;13.816;2023-08-24T08:21:21;4.78;;;2.97;;
17763;SDS011;22245;52.832;13.816;2023-08-24T08:24:43;6.90;;;3.03;;
17763;SDS011;22245;52.832;13.816;2023-08-24T08:28:05;8.00;;;2.95;;
17763;SDS011;22245;52.832;13.816;2023-08-24T08:31:27;13.20;;;3.63;;
17763;SDS011;22245;52.832;13.816;2023-08-24T08:34:49;9.95;;;3.30;;
17763;SDS011;22245;52.832;13.816;2023-08-24T08:38:11;11.77;;;3.60;;
17763;SDS011;22245;52.832;13.816;2023-08-24T08:41:33;7.90;;;3.25;;
17763;SDS011;22245;52.832;13.816;2023-08-24T08:45:02;6.53;;;3.28;;
17763;SDS011;22245;52.832;13.816;2023-08-24T08:48:31;4.60;;;3.30;;
17763;SDS011;22245;52.832;13.816;2023-08-24T08:51:53;5.70;;;2.80;;
17763;SDS011;22245;52.832;13.816;2023-08-24T08:55:15;6.22;;;3.70;;
17763;SDS011;22245;52.832;13.816;2023-08-24T08:58:37;8.50;;;3.08;;
17763;SDS011;22245;52.832;13.816;2023-08-24T09:02:04;6.25;;;2.88;;
17763;SDS011;22245;52.832;13.816;2023-08-24T09:05:28;6.63;;;3.17;;
17763;SDS011;22245;52.832;13.816;2023-08-24T09:08:50;4.13;;;3.00;;
17763;SDS011;22245;52.832;13.816;2023-08-24T09:12:14;6.50;;;3.20;;
17763;SDS011;22245;52.832;13.816;2023-08-24T09:15:35;6.78;;;3.45;;
17763;SDS011;22245;52.832;13.816;2023-08-24T09:18:57;84.50;;;8.50;;
17763;SDS011;22245;52.832;13.816;2023-08-24T09:22:20;16.23;;;4.28;;
17763;SDS011;22245;52.832;13.816;2023-08-24T09:25:44;11.20;;;3.20;;
17763;SDS011;22245;52.832;13.816;2023-08-24T09:29:10;8.15;;;3.30;;
17763;SDS011;22245;52.832;13.816;2023-08-24T09:32:33;9.52;;;3.20;;
17763;SDS011;22245;52.832;13.816;2023-08-24T09:35:55;4.90;;;2.85;;
17763;SDS011;22245;52.832;13.816;2023-08-24T09:39:22;6.63;;;3.33;;
17763;SDS011;22245;52.832;13.816;2023-08-24T09:42:44;8.55;;;3.20;;
17763;SDS011;22245;52.832;13.816;2023-08-24T09:46:06;5.43;;;2.92;;
17763;SDS011;22245;52.832;13.816;2023-08-24T09:49:28;7.32;;;3.30;;
17763;SDS011;22245;52.832;13.816;2023-08-24T09:52:50;5.25;;;3.10;;
17763;SDS011;22245;52.832;13.816;2023-08-24T09:56:16;7.55;;;3.30;;
17763;SDS011;22245;52.832;13.816;2023-08-24T09:59:39;5.28;;;3.00;;
17763;SDS011;22245;52.832;13.816;2023-08-24T10:03:04;5.50;;;2.78;;
17763;SDS011;22245;52.832;13.816;2023-08-24T10:06:27;4.32;;;3.08;;
17763;SDS011;22245;52.832;13.816;2023-08-24T10:09:51;6.55;;;2.70;;
17763;SDS011;22245;52.832;13.816;2023-08-24T10:13:20;3.63;;;2.80;;
17763;SDS011;22245;52.832;13.816;2023-08-24T10:16:48;4.97;;;2.70;;
17763;SDS011;22245;52.832;13.816;2023-08-24T10:20:12;5.15;;;2.63;;
17763;SDS011;22245;52.832;13.816;2023-08-24T10:23:35;5.43;;;2.60;;
17763;SDS011;22245;52.832;13.816;2023-08-24T10:26:59;4.38;;;2.40;;
17763;SDS011;22245;52.832;13.816;2023-08-24T10:30:24;3.40;;;2.05;;
17763;SDS011;22245;52.832;13.816;2023-08-24T10:33:46;4.18;;;2.08;;
17763;SDS011;22245;52.832;13.816;2023-08-24T10:37:09;6.70;;;2.10;;
17763;SDS011;22245;52.832;13.816;2023-08-24T10:40:32;5.97;;;2.40;;
17763;SDS011;22245;52.832;13.816;2023-08-24T10:44:03;2.75;;;2.17;;
17763;SDS011;22245;52.832;13.816;2023-08-24T10:47:30;3.40;;;2.30;;
17763;SDS011;22245;52.832;13.816;2023-08-24T10:54:47;3.95;;;2.10;;
17763;SDS011;22245;52.832;13.816;2023-08-24T10:58:09;5.30;;;2.03;;
17763;SDS011;22245;52.832;13.816;2023-08-24T11:01:38;4.88;;;2.20;;
17763;SDS011;22245;52.832;13.816;2023-08-24T11:05:05;6.30;;;2.50;;
17763;SDS011;22245;52.832;13.816;2023-08-24T11:08:43;4.55;;;2.25;;
17763;SDS011;22245;52.832;13.816;2023-08-24T11:12:06;5.32;;;2.22;;
17763;SDS011;22245;52.832;13.816;2023-08-24T11:15:30;4.10;;;1.95;;
17763;SDS011;22245;52.832;13.816;2023-08-24T11:18:53;5.35;;;2.40;;
17763;SDS011;22245;52.832;13.816;2023-08-24T11:22:16;4.35;;;2.35;;
17763;SDS011;22245;52.832;13.816;2023-08-24T11:25:38;2.80;;;1.90;;
17763;SDS011;22245;52.832;13.816;2023-08-24T11:29:04;4.22;;;2.30;;
17763;SDS011;22245;52.832;13.816;2023-08-24T11:32:26;3.08;;;2.47;;
17763;SDS011;22245;52.832;13.816;2023-08-24T11:35:48;3.95;;;2.17;;
17763;SDS011;22245;52.832;13.816;2023-08-24T11:39:15;7.45;;;2.55;;
17763;SDS011;22245;52.832;13.816;2023-08-24T11:42:40;2.70;;;2.00;;
17763;SDS011;22245;52.832;13.816;2023-08-24T11:46:01;4.50;;;2.17;;
17763;SDS011;22245;52.832;13.816;2023-08-24T11:49:25;6.57;;;2.30;;
17763;SDS011;22245;52.832;13.816;2023-08-24T11:52:47;2.38;;;2.05;;
17763;SDS011;22245;52.832;13.816;2023-08-24T11:56:10;3.95;;;2.13;;
17763;SDS011;22245;52.832;13.816;2023-08-24T11:59:32;2.67;;;2.08;;
17763;SDS011;22245;52.832;13.816;2023-08-24T12:02:55;3.47;;;2.00;;
17763;SDS011;22245;52.832;13.816;2023-08-24T12:06:19;3.60;;;2.33;;
17763;SDS011;22245;52.832;13.816;2023-08-24T12:09:41;9.00;;;2.67;;
17763;SDS011;22245;52.832;13.816;2023-08-24T12:13:05;3.03;;;1.98;;
17763;SDS011;22245;52.832;13.816;2023-08-24T12:16:30;5.22;;;2.22;;
17763;SDS011;22245;52.832;13.816;2023-08-24T12:19:57;8.90;;;3.03;;
17763;SDS011;22245;52.832;13.816;2023-08-24T12:23:21;2.53;;;2.20;;
17763;SDS011;22245;52.832;13.816;2023-08-24T12:26:54;4.78;;;2.22;;
17763;SDS011;22245;52.832;13.816;2023-08-24T12:30:19;5.10;;;2.17;;
17763;SDS011;22245;52.832;13.816;2023-08-24T12:33:41;4.38;;;2.47;;
17763;SDS011;22245;52.832;13.816;2023-08-24T12:37:04;2.70;;;2.20;;
17763;SDS011;22245;52.832;13.816;2023-08-24T12:40:26;4.32;;;2.45;;
17763;SDS011;22245;52.832;13.816;2023-08-24T12:43:47;5.45;;;2.20;;
17763;SDS011;22245;52.832;13.816;2023-08-24T12:47:10;3.55;;;2.28;;
17763;SDS011;22245;52.832;13.816;2023-08-24T12:50:32;5.80;;;2.25;;
17763;SDS011;22245;52.832;13.816;2023-08-24T12:53:53;4.28;;;2.20;;
17763;SDS011;22245;52.832;13.816;2023-08-24T12:57:15;3.60;;;2.20;;
17763;SDS011;22245;52.832;13.816;2023-08-24T13:00:37;5.95;;;2.70;;
17763;SDS011;22245;52.832;13.816;2023-08-24T13:04:00;4.13;;;2.17;;
17763;SDS011;22245;52.832;13.816;2023-08-24T13:07:22;4.35;;;2.15;;
17763;SDS011;22245;52.832;13.816;2023-08-24T13:10:44;4.30;;;2.30;;
17763;SDS011;22245;52.832;13.816;2023-08-24T13:14:06;3.53;;;2.10;;
17763;SDS011;22245;52.832;13.816;2023-08-24T13:17:27;4.20;;;2.17;;
17763;SDS011;22245;52.832;13.816;2023-08-24T13:20:52;6.25;;;2.30;;
17763;SDS011;22245;52.832;13.816;2023-08-24T13:24:14;3.17;;;2.10;;
17763;SDS011;22245;52.832;13.816;2023-08-24T13:27:35;3.35;;;2.20;;
17763;SDS011;22245;52.832;13.816;2023-08-24T13:30:57;3.75;;;2.55;;
17763;SDS011;22245;52.832;13.816;2023-08-24T13:34:18;7.38;;;2.45;;
17763;SDS011;22245;52.832;13.816;2023-08-24T13:37:42;6.15;;;2.70;;
17763;SDS011;22245;52.832;13.816;2023-08-24T13:41:04;4.50;;;2.42;;
17763;SDS011;22245;52.832;13.816;2023-08-24T13:44:26;2.40;;;2.10;;
17763;SDS011;22245;52.832;13.816;2023-08-24T13:47:48;3.28;;;2.40;;
17763;SDS011;22245;52.832;13.816;2023-08-24T13:51:10;6.03;;;2.42;;
17763;SDS011;22245;52.832;13.816;2023-08-24T13:54:34;5.55;;;2.60;;
17763;SDS011;22245;52.832;13.816;2023-08-24T13:57:56;3.60;;;2.20;;
17763;SDS011;22245;52.832;13.816;2023-08-24T14:01:17;3.30;;;3.00;;
17763;SDS011;22245;52.832;13.816;2023-08-24T14:04:39;4.97;;;2.30;;
17763;SDS011;22245;52.832;13.816;2023-08-24T14:08:01;6.22;;;2.53;;
17763;SDS011;22245;52.832;13.816;2023-08-24T14:11:25;3.80;;;2.50;;
17763;SDS011;22245;52.832;13.816;2023-08-24T14:14:47;6.55;;;2.65;;
17763;SDS011;22245;52.832;13.816;2023-08-24T14:18:10;3.35;;;2.22;;
17763;SDS011;22245;52.832;13.816;2023-08-24T14:21:33;4.38;;;2.40;;
17763;SDS011;22245;52.832;13.816;2023-08-24T14:25:05;5.50;;;2.60;;
17763;SDS011;22245;52.832;13.816;2023-08-24T14:32:10;4.55;;;2.80;;
17763;SDS011;22245;52.832;13.816;2023-08-24T14:35:31;5.78;;;2.55;;
17763;SDS011;22245;52.832;13.816;2023-08-24T14:38:53;6.10;;;2.80;;
17763;SDS011;22245;52.832;13.816;2023-08-24T14:42:15;5.03;;;2.78;;
17763;SDS011;22245;52.832;13.816;2023-08-24T14:45:38;4.60;;;2.55;;
17763;SDS011;22245;52.832;13.816;2023-08-24T14:49:00;4.03;;;2.83;;
17763;SDS011;22245;52.832;13.816;2023-08-24T14:52:22;6.30;;;2.40;;
17763;SDS011;22245;52.832;13.816;2023-08-24T14:55:43;4.40;;;2.83;;
17763;SDS011;22245;52.832;13.816;2023-08-24T14:59:05;4.28;;;3.03;;
17763;SDS011;22245;52.832;13.816;2023-08-24T15:02:29;4.30;;;2.90;;
17763;SDS011;22245;52.832;13.816;2023-08-24T15:05:56;5.90;;;2.65;;
17763;SDS011;22245;52.832;13.816;2023-08-24T15:09:18;3.38;;;2.80;;
17763;SDS011;22245;52.832;13.816;2023-08-24T15:12:40;4.15;;;2.47;;
17763;SDS011;22245;52.832;13.816;2023-08-24T15:16:02;5.43;;;2.70;;
17763;SDS011;22245;52.832;13.816;2023-08-24T15:19:25;5.00;;;2.88;;
17763;SDS011;22245;52.832;13.816;2023-08-24T15:22:47;3.90;;;3.00;;
17763;SDS011;22245;52.832;13.816;2023-08-24T15:26:09;9.93;;;3.35;;
17763;SDS011;22245;52.832;13.816;2023-08-24T15:29:31;5.28;;;2.55;;
17763;SDS011;22245;52.832;13.816;2023-08-24T15:32:52;8.93;;;3.17;;
17763;SDS011;22245;52.832;13.816;2023-08-24T15:36:15;5.32;;;3.15;;
17763;SDS011;22245;52.832;13.816;2023-08-24T15:39:38;8.63;;;3.40;;
17763;SDS011;22245;52.832;13.816;2023-08-24T15:43:00;6.43;;;2.90;;
17763;SDS011;22245;52.832;13.816;2023-08-24T15:46:22;6.00;;;3.08;;
17763;SDS011;22245;52.832;13.816;2023-08-24T15:49:44;14.00;;;3.67;;
17763;SDS011;22245;52.832;13.816;2023-08-24T15:53:07;5.63;;;3.30;;
17763;SDS011;22245;52.832;13.816;2023-08-24T15:56:28;6.45;;;3.50;;
17763;SDS011;22245;52.832;13.816;2023-08-24T15:59:50;9.85;;;3.60;;
17763;SDS011;22245;52.832;13.816;2023-08-24T16:03:12;3.25;;;2.85;;
17763;SDS011;22245;52.832;13.816;2023-08-24T16:06:34;5.35;;;3.30;;
17763;SDS011;22245;52.832;13.816;2023-08-24T16:09:57;6.03;;;3.25;;
17763;SDS011;22245;52.832;13.816;2023-08-24T16:13:19;6.50;;;3.40;;
17763;SDS011;22245;52.832;13.816;2023-08-24T16:16:42;6.28;;;3.60;;
17763;SDS011;22245;52.832;13.816;2023-08-24T16:20:04;5.47;;;3.25;;
17763;SDS011;22245;52.832;13.816;2023-08-24T16:23:30;4.85;;;3.55;;
17763;SDS011;22245;52.832;13.816;2023-08-24T16:26:53;5.10;;;3.97;;
17763;SDS011;22245;52.832;13.816;2023-08-24T16:30:15;5.70;;;3.70;;
17763;SDS011;22245;52.832;13.816;2023-08-24T16:33:38;10.68;;;4.22;;
17763;SDS011;22245;52.832;13.816;2023-08-24T16:37:01;9.10;;;3.85;;
17763;SDS011;22245;52.832;13.816;2023-08-24T16:40:22;11.75;;;4.55;;
17763;SDS011;22245;52.832;13.816;2023-08-24T16:43:46;8.07;;;4.00;;
17763;SDS011;22245;52.832;13.816;2023-08-24T16:47:07;11.18;;;4.50;;
17763;SDS011;22245;52.832;13.816;2023-08-24T16:50:29;7.18;;;4.53;;
17763;SDS011;22245;52.832;13.816;2023-08-24T16:53:50;10.45;;;4.85;;
17763;SDS011;22245;52.832;13.816;2023-08-24T16:57:11;8.27;;;4.38;;
17763;SDS011;22245;52.832;13.816;2023-08-24T17:00:35;7.68;;;4.50;;
17763;SDS011;22245;52.832;13.816;2023-08-24T17:03:57;10.30;;;4.57;;
17763;SDS011;22245;52.832;13.816;2023-08-24T17:07:19;12.82;;;4.72;;
17763;SDS011;22245;52.832;13.816;2023-08-24T17:10:43;13.38;;;5.03;;
17763;SDS011;22245;52.832;13.816;2023-08-24T17:14:05;15.13;;;4.78;;
17763;SDS011;22245;52.832;13.816;2023-08-24T17:17:28;11.70;;;5.25;;
17763;SDS011;22245;52.832;13.816;2023-08-24T17:20:50;10.88;;;4.85;;
17763;SDS011;22245;52.832;13.816;2023-08-24T17:24:12;9.55;;;4.75;;
17763;SDS011;22245;52.832;13.816;2023-08-24T17:27:33;11.93;;;4.95;;
17763;SDS011;22245;52.832;13.816;2023-08-24T17:30:57;7.15;;;4.53;;
17763;SDS011;22245;52.832;13.816;2023-08-24T17:34:20;8.40;;;4.85;;
17763;SDS011;22245;52.832;13.816;2023-08-24T17:37:42;11.55;;;5.35;;
17763;SDS011;22245;52.832;13.816;2023-08-24T17:41:05;17.35;;;6.10;;
17763;SDS011;22245;52.832;13.816;2023-08-24T17:44:28;8.45;;;4.55;;
17763;SDS011;22245;52.832;13.816;2023-08-24T17:47:50;5.35;;;4.30;;
17763;SDS011;22245;52.832;13.816;2023-08-24T17:51:14;7.25;;;4.47;;
17763;SDS011;22245;52.832;13.816;2023-08-24T17:54:36;13.20;;;5.28;;
17763;SDS011;22245;52.832;13.816;2023-08-24T17:57:58;10.75;;;4.88;;
17763;SDS011;22245;52.832;13.816;2023-08-24T18:01:19;6.53;;;4.28;;
17763;SDS011;22245;52.832;13.816;2023-08-24T18:04:41;9.60;;;4.68;;
17763;SDS011;22245;52.832;13.816;2023-08-24T18:08:07;7.63;;;4.80;;
17763;SDS011;22245;52.832;13.816;2023-08-24T18:11:29;8.57;;;4.50;;
17763;SDS011;22245;52.832;13.816;2023-08-24T18:14:50;9.38;;;5.18;;
17763;SDS011;22245;52.832;13.816;2023-08-24T18:18:12;8.30;;;4.97;;
17763;SDS011;22245;52.832;13.816;2023-08-24T18:21:33;5.45;;;4.60;;
17763;SDS011;22245;52.832;13.816;2023-08-24T18:24:56;7.93;;;4.90;;
17763;SDS011;22245;52.832;13.816;2023-08-24T18:28:18;7.72;;;5.10;;
17763;SDS011;22245;52.832;13.816;2023-08-24T18:31:39;13.18;;;6.28;;
17763;SDS011;22245;52.832;13.816;2023-08-24T18:35:01;10.73;;;6.25;;
17763;SDS011;22245;52.832;13.816;2023-08-24T18:38:24;7.65;;;5.80;;
17763;SDS011;22245;52.832;13.816;2023-08-24T18:41:47;10.82;;;5.60;;
17763;SDS011;22245;52.832;13.816;2023-08-24T18:45:10;10.68;;;5.22;;
17763;SDS011;22245;52.832;13.816;2023-08-24T18:48:32;8.77;;;5.65;;
17763;SDS011;22245;52.832;13.816;2023-08-24T18:51:55;10.00;;;5.43;;
17763;SDS011;22245;52.832;13.816;2023-08-24T18:55:16;16.52;;;6.50;;
17763;SDS011;22245;52.832;13.816;2023-08-24T18:58:39;8.48;;;5.20;;
17763;SDS011;22245;52.832;13.816;2023-08-24T19:02:01;11.50;;;5.57;;
17763;SDS011;22245;52.832;13.816;2023-08-24T19:05:23;6.20;;;5.03;;
17763;SDS011;22245;52.832;13.816;2023-08-24T19:08:45;13.75;;;5.22;;
17763;SDS011;22245;52.832;13.816;2023-08-24T19:12:06;7.50;;;4.78;;
17763;SDS011;22245;52.832;13.816;2023-08-24T19:15:29;14.85;;;6.68;;
17763;SDS011;22245;52.832;13.816;2023-08-24T19:18:51;15.05;;;8.27;;
17763;SDS011;22245;52.832;13.816;2023-08-24T19:22:13;12.13;;;7.75;;
17763;SDS011;22245;52.832;13.816;2023-08-24T19:25:34;8.38;;;5.75;;
17763;SDS011;22245;52.832;13.816;2023-08-24T19:28:56;7.75;;;5.50;;
17763;SDS011;22245;52.832;13.816;2023-08-24T19:32:19;9.85;;;5.63;;
17763;SDS011;22245;52.832;13.816;2023-08-24T19:35:40;6.65;;;5.50;;
17763;SDS011;22245;52.832;13.816;2023-08-24T19:39:02;7.80;;;4.85;;
17763;SDS011;22245;52.832;13.816;2023-08-24T19:42:24;12.32;;;5.43;;
17763;SDS011;22245;52.832;13.816;2023-08-24T19:45:46;5.07;;;4.57;;
17763;SDS011;22245;52.832;13.816;2023-08-24T19:49:10;5.80;;;5.00;;
17763;SDS011;22245;52.832;13.816;2023-08-24T19:52:32;8.70;;;5.00;;
17763;SDS011;22245;52.832;13.816;2023-08-24T19:55:54;5.65;;;4.85;;
17763;SDS011;22245;52.832;13.816;2023-08-24T19:59:15;7.05;;;5.03;;
17763;SDS011;22245;52.832;13.816;2023-08-24T20:02:36;8.13;;;4.93;;
17763;SDS011;22245;52.832;13.816;2023-08-24T20:06:02;9.70;;;5.50;;
17763;SDS011;22245;52.832;13.816;2023-08-24T20:09:24;8.18;;;5.82;;
17763;SDS011;22245;52.832;13.816;2023-08-24T20:12:46;7.13;;;5.63;;
17763;SDS011;22245;52.832;13.816;2023-08-24T20:16:07;11.45;;;6.22;;